West Chesterfield, New Hampshire
Current Conditions -  °F | °C
As of 2:15 AM on Friday 19 Dec 2014 (Local Time) from KEEN Reporting Station
Overcast Overcast  
Wind Chill: 30°   Ceiling: 2600
Heat Index: 34°   Visibility: 10mi
Dew Point: 25°   Wind: 5mph
Humidity: 70%   Direction: 290°WNW
Pressure: 29.89"   Gusts: NA
Location:  42.9°N, 72.52°W
Report Text: KEEN 190715Z AUTO 29004KT 10SM BKN026 OVC032 01/M04 A2989 RMK AO1
Loading
Personal Weather Stations






























Interactive Weather Map New forecast layout! Learn more

10-Day Weather Forecast

Advertisements
Track Severe Weather on mobile